createdAt,value
2018-10-12T04:30:12.235Z,99.90
2018-10-12T04:32:41.321Z,99.90
2018-10-12T04:35:10.425Z,99.90
2018-10-12T04:37:39.621Z,99.90
2018-10-12T04:40:33.302Z,99.90
2018-10-12T04:43:02.473Z,99.90
2018-10-12T04:45:31.629Z,99.90
2018-10-12T04:48:00.760Z,99.90
2018-10-12T04:50:29.861Z,99.90
2018-10-12T04:52:59.029Z,99.90
2018-10-12T04:55:28.142Z,99.90
2018-10-12T04:57:57.275Z,99.90
2018-10-12T05:00:26.373Z,99.90
2018-10-12T05:02:55.522Z,99.90
2018-10-12T05:05:24.632Z,99.90
2018-10-12T05:07:53.831Z,99.90
2018-10-12T05:10:22.832Z,99.90
2018-10-12T05:12:51.938Z,99.90
2018-10-12T05:15:21.160Z,99.90
2018-10-12T05:17:50.286Z,99.90
2018-10-12T05:20:19.405Z,99.90
2018-10-12T05:22:48.515Z,99.90
2018-10-12T05:25:17.656Z,99.90
2018-10-12T05:27:46.855Z,99.90
2018-10-12T05:30:16.004Z,99.90
2018-10-12T05:32:45.308Z,99.90
2018-10-12T05:35:14.406Z,99.90
2018-10-12T05:37:43.963Z,99.90
2018-10-12T05:40:13.058Z,99.90
2018-10-12T05:42:42.216Z,99.90
2018-10-12T05:45:11.307Z,99.90
2018-10-12T05:47:40.465Z,99.90
2018-10-12T05:50:10.586Z,99.90
2018-10-12T05:52:40.905Z,99.90
2018-10-12T05:55:10.044Z,99.90
2018-10-12T05:57:40.977Z,99.90
2018-10-12T06:00:10.852Z,99.90
2018-10-12T06:02:39.998Z,99.90
2018-10-12T06:05:09.278Z,99.90
2018-10-12T06:07:38.368Z,99.90
2018-10-12T06:10:07.672Z,99.90
2018-10-12T06:12:36.641Z,99.90
2018-10-12T06:15:05.771Z,99.90
2018-10-12T06:17:34.833Z,99.90
2018-10-12T06:20:03.973Z,99.90
2018-10-12T06:22:33.042Z,99.90
2018-10-12T06:25:02.135Z,99.90
2018-10-12T06:27:31.234Z,99.90
2018-10-12T06:30:00.353Z,99.90
2018-10-12T06:32:29.434Z,99.90
2018-10-12T06:34:58.551Z,99.90
2018-10-12T06:37:27.652Z,99.90
2018-10-12T06:39:56.811Z,99.90
2018-10-12T06:42:25.939Z,99.90
2018-10-12T06:44:55.193Z,99.90
2018-10-12T06:47:24.280Z,99.90
2018-10-12T06:49:53.411Z,99.90
2018-10-12T06:52:22.489Z,99.90
2018-10-12T06:54:51.607Z,99.90
2018-10-12T06:57:20.701Z,99.90
2018-10-12T06:59:49.851Z,99.90
2018-10-12T07:02:20.333Z,99.90
2018-10-12T07:04:50.361Z,99.90
2018-10-12T07:07:19.509Z,99.90
2018-10-12T07:09:48.659Z,99.90
2018-10-12T07:12:17.785Z,99.90
2018-10-12T07:14:46.978Z,99.90
2018-10-12T07:17:16.077Z,99.90
2018-10-12T07:19:45.202Z,99.90
2018-10-12T07:22:14.392Z,99.90
2018-10-12T07:24:43.585Z,99.90
2018-10-12T07:27:12.726Z,99.90
2018-10-12T07:29:43.787Z,99.90
2018-10-12T07:32:13.235Z,99.90
2018-10-12T07:34:42.356Z,99.90
2018-10-12T07:37:12.302Z,99.90
2018-10-12T07:39:41.654Z,99.90
2018-10-12T07:42:10.801Z,99.90
2018-10-12T07:44:41.064Z,99.90
2018-10-12T07:47:10.353Z,99.90
2018-10-12T07:49:40.711Z,99.90
2018-10-12T07:52:10.132Z,99.90
2018-10-12T07:54:41.081Z,99.90
2018-10-12T07:57:18.069Z,99.90
2018-10-12T07:59:47.394Z,99.90
2018-10-12T08:02:16.910Z,99.90
2018-10-12T08:04:46.235Z,99.90
2018-10-12T08:07:15.761Z,99.90
2018-10-12T08:09:45.017Z,99.90
2018-10-12T08:12:14.324Z,99.90
2018-10-12T08:14:44.399Z,99.90
2018-10-12T08:17:13.603Z,99.90
2018-10-12T08:19:42.926Z,99.90
2018-10-12T08:22:14.144Z,99.90
2018-10-12T08:24:45.534Z,99.90
2018-10-12T08:27:14.807Z,99.90
2018-10-12T08:29:43.941Z,99.90
2018-10-12T08:32:13.173Z,99.90
2018-10-12T08:34:43.712Z,99.90
2018-10-12T08:37:15.461Z,99.90
2018-10-12T08:39:45.406Z,99.90
2018-10-12T08:42:17.847Z,99.90
2018-10-12T08:44:48.205Z,99.90
2018-10-12T08:47:20.913Z,99.90
2018-10-12T08:49:50.577Z,99.90
2018-10-12T08:52:19.812Z,99.90
2018-10-12T08:54:48.914Z,99.90
2018-10-12T08:57:18.001Z,99.90
2018-10-12T08:59:47.207Z,99.90
2018-10-12T09:02:16.298Z,99.90
2018-10-12T09:04:45.401Z,99.90
2018-10-12T09:07:14.509Z,99.90
2018-10-12T09:09:43.626Z,99.90
2018-10-12T09:12:12.739Z,99.90
2018-10-12T09:14:41.847Z,99.90
2018-10-12T09:17:10.976Z,99.90
2018-10-12T09:19:40.077Z,99.90
2018-10-12T09:22:09.162Z,99.90
2018-10-12T09:24:38.320Z,99.90
2018-10-12T09:27:07.460Z,99.90
2018-10-12T09:29:36.610Z,99.90
2018-10-12T09:32:05.718Z,99.90
2018-10-12T09:34:34.830Z,99.90
2018-10-12T09:37:03.991Z,99.90
2018-10-12T09:39:33.032Z,99.90
2018-10-12T09:42:02.161Z,99.90
2018-10-12T09:44:31.258Z,99.90
2018-10-12T09:47:00.342Z,99.90
2018-10-12T09:49:29.485Z,99.90
2018-10-12T09:51:58.563Z,99.90
2018-10-12T09:54:27.675Z,99.90
2018-10-12T09:57:03.019Z,99.90
2018-10-12T09:59:32.691Z,99.90
2018-10-12T10:02:07.262Z,99.90
2018-10-12T10:04:36.930Z,99.90
2018-10-12T10:07:06.279Z,99.90
2018-10-12T10:09:37.542Z,99.90
2018-10-12T10:12:06.794Z,99.90
2018-10-12T10:14:35.939Z,99.90
2018-10-12T10:17:06.210Z,99.90
2018-10-12T10:19:35.924Z,99.90
2018-10-12T10:22:06.075Z,99.90
2018-10-12T10:24:35.788Z,99.90
2018-10-12T10:27:05.224Z,99.90
2018-10-12T10:29:36.022Z,99.90
2018-10-12T10:32:05.389Z,99.90
2018-10-12T10:34:34.685Z,99.90
2018-10-12T10:37:03.988Z,99.90
2018-10-12T10:39:33.078Z,99.90
2018-10-12T10:42:03.753Z,99.90
2018-10-12T10:44:33.122Z,99.90
2018-10-12T10:47:02.206Z,99.90
2018-10-12T10:49:33.548Z,99.90
2018-10-12T10:52:02.870Z,99.90
2018-10-12T10:54:31.973Z,99.90
2018-10-12T10:57:05.432Z,99.90
2018-10-12T10:59:35.885Z,99.90
2018-10-12T11:02:05.848Z,99.90
2018-10-12T11:04:35.179Z,99.90
2018-10-12T11:07:04.391Z,99.90
2018-10-12T11:09:33.533Z,99.90
2018-10-12T11:12:02.742Z,99.90
2018-10-12T11:14:31.853Z,99.90
2018-10-12T11:17:00.955Z,99.90
2018-10-12T11:19:30.082Z,99.90
2018-10-12T11:21:59.239Z,99.90
2018-10-12T11:24:28.323Z,99.90
2018-10-12T11:26:57.548Z,99.90
2018-10-12T11:29:26.750Z,99.90
2018-10-12T11:31:58.874Z,99.90
2018-10-12T11:34:32.315Z,99.90
2018-10-12T11:37:12.658Z,99.90
2018-10-12T11:39:43.344Z,99.90
2018-10-12T11:42:12.573Z,99.90
2018-10-12T11:44:41.813Z,99.90
2018-10-12T11:47:18.005Z,99.90
2018-10-12T11:49:47.164Z,99.90
2018-10-12T11:52:16.770Z,99.90
2018-10-12T11:54:48.271Z,99.90
2018-10-12T11:57:19.583Z,99.90
2018-10-12T11:59:52.813Z,99.90
2018-10-12T12:02:23.384Z,99.90
2018-10-12T12:04:54.862Z,99.90
2018-10-12T12:07:27.662Z,99.90
2018-10-12T12:09:57.672Z,99.90
2018-10-12T12:12:30.335Z,99.90
2018-10-12T12:15:02.692Z,99.90
2018-10-12T12:17:32.319Z,99.90
2018-10-12T12:20:02.705Z,99.90
2018-10-12T12:22:32.647Z,99.90
2018-10-12T12:25:03.257Z,99.90
2018-10-12T12:27:32.782Z,99.90
2018-10-12T12:30:03.654Z,99.90
2018-10-12T12:32:34.872Z,99.90
2018-10-12T12:35:04.643Z,99.90
2018-10-12T12:37:33.621Z,99.90
2018-10-12T12:40:02.770Z,99.90
2018-10-12T12:42:31.857Z,99.90
2018-10-12T12:45:00.993Z,99.90
2018-10-12T12:47:30.204Z,99.90
2018-10-12T12:49:59.221Z,99.90
2018-10-12T12:52:28.293Z,99.90
2018-10-12T12:54:57.390Z,99.90
2018-10-12T12:57:27.413Z,99.90
2018-10-12T12:59:57.074Z,99.80
2018-10-12T13:02:26.173Z,99.70
2018-10-12T13:04:55.264Z,99.70
2018-10-12T13:07:25.626Z,99.80
2018-10-12T13:09:55.599Z,99.80
2018-10-12T13:12:24.665Z,99.80
2018-10-12T13:14:53.742Z,99.40
2018-10-12T13:17:22.809Z,99.30
2018-10-12T13:19:51.918Z,99.10
2018-10-12T13:22:20.965Z,99.00
2018-10-12T13:24:50.062Z,98.70
2018-10-12T13:27:19.148Z,98.40
2018-10-12T13:29:48.230Z,98.20
2018-10-12T13:32:17.288Z,98.00
2018-10-12T13:34:46.360Z,98.10
2018-10-12T13:37:15.422Z,97.90
2018-10-12T13:39:44.535Z,97.80
2018-10-12T13:42:13.616Z,98.10
2018-10-12T13:44:42.705Z,97.80
2018-10-12T13:47:11.765Z,97.80
2018-10-12T13:49:40.910Z,96.90
2018-10-12T13:52:09.982Z,95.90
2018-10-12T13:54:39.053Z,94.60
2018-10-12T13:57:08.148Z,93.80
2018-10-12T13:59:37.218Z,92.90
2018-10-12T14:02:06.618Z,93.10
2018-10-12T14:04:35.689Z,92.40
2018-10-12T14:07:04.793Z,92.40
2018-10-12T14:09:33.864Z,91.90
2018-10-12T14:12:02.956Z,90.40
2018-10-12T14:14:32.119Z,88.70
2018-10-12T14:17:01.215Z,86.00
2018-10-12T14:19:30.292Z,83.10
2018-10-12T14:21:59.376Z,81.90
2018-10-12T14:24:28.464Z,79.50
2018-10-12T14:26:57.553Z,79.80
2018-10-12T14:29:26.917Z,77.20
2018-10-12T14:31:56.141Z,74.00
2018-10-12T14:34:25.286Z,72.80
2018-10-12T14:36:54.458Z,70.10
2018-10-12T14:39:23.579Z,70.50
2018-10-12T14:41:52.701Z,71.80
2018-10-12T14:44:21.921Z,76.20
2018-10-12T14:46:50.953Z,76.90
2018-10-12T14:49:20.023Z,77.70
2018-10-12T14:51:49.249Z,76.80
2018-10-12T14:54:19.137Z,76.10
2018-10-12T14:56:48.244Z,74.90
2018-10-12T14:59:17.328Z,74.90
2018-10-12T15:01:46.428Z,75.20
2018-10-12T15:04:15.522Z,75.80
2018-10-12T15:06:44.601Z,78.80
2018-10-12T15:09:14.502Z,80.20
2018-10-12T15:11:43.603Z,81.50
2018-10-12T15:14:14.926Z,82.60
2018-10-12T15:16:51.028Z,83.20
2018-10-12T15:19:26.056Z,86.30
2018-10-12T15:21:55.779Z,86.90
2018-10-12T15:24:33.065Z,89.00
2018-10-12T15:27:04.823Z,88.60
2018-10-12T15:29:33.940Z,89.70
2018-10-12T15:32:06.774Z,90.10
2018-10-12T15:34:37.843Z,91.10
2018-10-12T15:37:07.844Z,91.10
2018-10-12T15:39:39.862Z,91.50
2018-10-12T15:42:12.308Z,91.90
2018-10-12T15:44:43.972Z,91.40
2018-10-12T15:47:14.803Z,91.70
2018-10-12T15:49:44.030Z,92.10
2018-10-12T15:52:15.766Z,92.00
2018-10-12T15:54:45.649Z,92.80
2018-10-12T15:57:19.820Z,93.10
2018-10-12T15:59:50.178Z,93.60
2018-10-12T16:02:19.728Z,94.10
2018-10-12T16:04:48.925Z,94.50
2018-10-12T16:07:18.970Z,94.70
2018-10-12T16:09:49.949Z,95.10
2018-10-12T16:12:20.876Z,95.40
2018-10-12T16:14:51.378Z,95.60
2018-10-12T16:17:21.040Z,95.80
2018-10-12T16:19:51.572Z,96.10
2018-10-12T16:22:20.844Z,96.40
2018-10-12T16:25:01.303Z,96.60
2018-10-12T16:27:31.567Z,96.70
2018-10-12T16:30:00.709Z,96.00
2018-10-12T16:32:30.646Z,96.00
2018-10-12T16:34:59.828Z,96.30
2018-10-12T16:37:29.237Z,96.60
2018-10-12T16:39:59.323Z,97.20
2018-10-12T16:42:28.454Z,97.10
2018-10-12T16:44:57.882Z,97.20
2018-10-12T16:47:26.993Z,97.40
2018-10-12T16:49:56.093Z,97.50
2018-10-12T16:52:25.206Z,97.70
2018-10-12T16:54:54.272Z,97.70
2018-10-12T16:57:30.582Z,97.80
2018-10-12T16:59:59.757Z,98.30
2018-10-12T17:02:28.873Z,98.40
2018-10-12T17:04:59.628Z,98.50
2018-10-12T17:07:28.966Z,98.40
2018-10-12T17:09:58.797Z,98.40
2018-10-12T17:12:28.167Z,98.40
2018-10-12T17:14:57.544Z,98.50
2018-10-12T17:17:26.729Z,98.70
2018-10-12T17:19:57.332Z,98.80
2018-10-12T17:22:27.111Z,98.90
2018-10-12T17:24:56.867Z,98.90
2018-10-12T17:27:26.423Z,99.20
2018-10-12T17:29:57.014Z,99.40
2018-10-12T17:32:26.271Z,99.90
2018-10-12T17:34:55.509Z,99.90
2018-10-12T17:37:25.484Z,99.90
2018-10-12T17:39:54.736Z,99.90
2018-10-12T17:42:24.036Z,99.90
2018-10-12T17:44:53.923Z,99.90
2018-10-12T17:47:23.168Z,99.90
2018-10-12T17:49:53.677Z,99.90
2018-10-12T17:52:23.493Z,99.90
2018-10-12T17:54:53.139Z,99.90
2018-10-12T17:57:24.730Z,99.90
2018-10-12T17:59:55.224Z,99.90
2018-10-12T18:02:24.970Z,99.90
2018-10-12T18:04:56.700Z,99.90
2018-10-12T18:07:27.400Z,99.90
2018-10-12T18:09:57.964Z,99.90
2018-10-12T18:12:29.127Z,99.90
2018-10-12T18:14:58.924Z,99.90
2018-10-12T18:17:28.949Z,99.90
2018-10-12T18:19:58.124Z,99.90
2018-10-12T18:22:27.894Z,99.90
2018-10-12T18:24:57.784Z,99.90
2018-10-12T18:27:28.071Z,99.90
2018-10-12T18:29:57.449Z,99.90
2018-10-12T18:32:27.198Z,99.90
2018-10-12T18:34:56.401Z,99.90
2018-10-12T18:37:25.638Z,99.90
2018-10-12T18:39:55.500Z,99.90
2018-10-12T18:42:24.742Z,99.90
2018-10-12T18:44:53.854Z,99.90
2018-10-12T18:47:24.986Z,99.90
2018-10-12T18:49:54.741Z,99.90
2018-10-12T18:52:24.026Z,99.90
2018-10-12T18:54:53.166Z,99.90
2018-10-12T18:57:22.889Z,99.90
2018-10-12T18:59:52.626Z,99.90
2018-10-12T19:02:22.795Z,99.90
2018-10-12T19:04:52.641Z,99.90
2018-10-12T19:07:21.911Z,99.90
2018-10-12T19:09:51.548Z,99.90
2018-10-12T19:12:21.320Z,99.90
2018-10-12T19:14:50.567Z,99.90
2018-10-12T19:17:20.251Z,99.90
2018-10-12T19:19:49.423Z,99.90
2018-10-12T19:22:19.038Z,99.90
2018-10-12T19:24:49.812Z,99.90
2018-10-12T19:27:19.480Z,99.90
2018-10-12T19:29:49.022Z,99.90
2018-10-12T19:32:21.612Z,99.90
2018-10-12T19:34:51.085Z,99.90
2018-10-12T19:37:20.860Z,99.90
2018-10-12T19:39:50.791Z,99.90
2018-10-12T19:42:20.049Z,99.90
2018-10-12T19:44:49.163Z,99.90
2018-10-12T19:47:18.254Z,99.90
2018-10-12T19:49:47.362Z,99.90
2018-10-12T19:52:16.439Z,99.90
2018-10-12T19:54:45.576Z,99.90
2018-10-12T19:57:14.718Z,99.90
2018-10-12T19:59:43.832Z,99.90
2018-10-12T20:02:12.935Z,99.90
2018-10-12T20:04:42.041Z,99.90
2018-10-12T20:07:11.173Z,99.90
2018-10-12T20:09:40.358Z,99.90
2018-10-12T20:12:09.461Z,99.90
2018-10-12T20:14:38.594Z,99.90
2018-10-12T20:17:07.772Z,99.90
2018-10-12T20:19:37.062Z,99.90
2018-10-12T20:22:08.759Z,99.90
2018-10-12T20:24:38.224Z,99.90
2018-10-12T20:27:07.693Z,99.90
2018-10-12T20:29:36.904Z,99.90
2018-10-12T20:32:06.279Z,99.90
2018-10-12T20:34:35.462Z,99.90
2018-10-12T20:37:05.105Z,99.90
2018-10-12T20:39:34.947Z,99.90
2018-10-12T20:42:04.068Z,99.90
2018-10-12T20:44:33.241Z,99.90
2018-10-12T20:47:02.398Z,99.90
2018-10-12T20:49:31.666Z,99.90
2018-10-12T20:52:00.785Z,99.90
2018-10-12T20:54:29.885Z,99.90
2018-10-12T20:56:59.005Z,99.90
2018-10-12T20:59:28.194Z,99.90
2018-10-12T21:01:57.297Z,99.90
2018-10-12T21:04:26.426Z,99.90
2018-10-12T21:06:55.514Z,99.90
2018-10-12T21:09:24.639Z,99.90
2018-10-12T21:11:53.741Z,99.90
2018-10-12T21:14:22.865Z,99.90
2018-10-12T21:16:52.023Z,99.90
2018-10-12T21:19:21.113Z,99.90
2018-10-12T21:21:50.202Z,99.90
2018-10-12T21:24:19.322Z,99.90
2018-10-12T21:26:48.409Z,99.90
2018-10-12T21:29:17.501Z,99.90
2018-10-12T21:31:46.601Z,99.90
2018-10-12T21:34:15.781Z,99.90
2018-10-12T21:36:44.930Z,99.90
2018-10-12T21:39:14.227Z,99.90
2018-10-12T21:41:43.341Z,99.90
2018-10-12T21:44:12.503Z,99.90
2018-10-12T21:46:41.669Z,99.90
2018-10-12T21:49:10.742Z,99.90
2018-10-12T21:51:39.829Z,99.90
2018-10-12T21:54:09.370Z,99.90
2018-10-12T21:56:38.478Z,99.90
2018-10-12T21:59:07.593Z,99.90
2018-10-12T22:01:36.723Z,99.90
2018-10-12T22:04:05.879Z,99.90
2018-10-12T22:06:35.114Z,99.90
2018-10-12T22:09:06.566Z,99.90
2018-10-12T22:11:35.693Z,99.90
2018-10-12T22:14:05.076Z,99.90
2018-10-12T22:16:34.131Z,99.90
2018-10-12T22:19:03.283Z,99.90
2018-10-12T22:21:32.374Z,99.90
2018-10-12T22:24:01.476Z,99.90
2018-10-12T22:26:30.608Z,99.90
2018-10-12T22:28:59.714Z,99.90
2018-10-12T22:31:28.860Z,99.90
2018-10-12T22:33:57.973Z,99.90
2018-10-12T22:36:27.094Z,99.90
2018-10-12T22:38:56.156Z,99.90
2018-10-12T22:41:25.232Z,99.90
2018-10-12T22:43:54.307Z,99.90
2018-10-12T22:46:23.414Z,99.90
2018-10-12T22:48:52.546Z,99.90
2018-10-12T22:51:21.693Z,99.90
2018-10-12T22:53:50.779Z,99.90
2018-10-12T22:56:19.911Z,99.90
2018-10-12T22:58:49.015Z,99.90
2018-10-12T23:01:18.163Z,99.90
2018-10-12T23:03:47.257Z,99.90
2018-10-12T23:06:16.373Z,99.90
2018-10-12T23:08:45.512Z,99.90
2018-10-12T23:11:14.664Z,99.90
2018-10-12T23:13:43.779Z,99.90
2018-10-12T23:16:12.911Z,99.90
2018-10-12T23:18:42.107Z,99.90
2018-10-12T23:21:11.159Z,99.90
2018-10-12T23:23:40.242Z,99.90
2018-10-12T23:26:09.353Z,99.90
2018-10-12T23:28:38.430Z,99.90
2018-10-12T23:31:08.023Z,99.90
2018-10-12T23:33:48.635Z,99.90
2018-10-12T23:36:17.740Z,99.90
2018-10-12T23:38:46.810Z,99.90
2018-10-12T23:41:15.925Z,99.90
2018-10-12T23:43:45.052Z,99.90
2018-10-12T23:46:14.186Z,99.90
2018-10-12T23:48:43.266Z,99.90
2018-10-12T23:51:12.370Z,99.90
2018-10-12T23:53:41.473Z,99.90
2018-10-12T23:56:10.612Z,99.90
2018-10-12T23:58:39.735Z,99.90
